Time;durP1;ratioP1;P1;durP2;ratioP2;P2;SDS_P1;SDS_P2;PMS_P1;PMS_P2;Temp;Humidity;BMP_temperature;BMP_pressure;BME280_temperature;BME280_humidity;BME280_pressure;Samples;Min_cycle;Max_cycle;Signal;HPM_P1;HPM_P2
2024/01/20 00:02:01;;;;;;;10.73;6.50;;;;;;;;;;4998687;28;89755;-64
2024/01/20 00:04:31;;;;;;;8.97;5.17;;;;;;;;;;5008211;28;89347;-64
2024/01/20 00:07:00;;;;;;;13.10;6.63;;;;;;;;;;5016926;28;88753;-64
2024/01/20 00:09:29;;;;;;;10.90;7.23;;;;;;;;;;5018747;28;87605;-63
2024/01/20 00:12:13;;;;;;;14.03;7.07;;;;;;;;;;5016102;28;89587;-63
2024/01/20 00:14:41;;;;;;;10.70;6.77;;;;;;;;;;5010973;28;89130;-64
2024/01/20 00:17:13;;;;;;;10.33;5.70;;;;;;;;;;5011771;28;88895;-64
2024/01/20 00:19:53;;;;;;;9.53;7.10;;;;;;;;;;5003184;28;87569;-64
2024/01/20 00:22:24;;;;;;;10.30;5.27;;;;;;;;;;5019213;28;89492;-63
2024/01/20 00:24:52;;;;;;;9.00;5.87;;;;;;;;;;5018126;28;89059;-64
2024/01/20 00:27:22;;;;;;;8.13;5.27;;;;;;;;;;5018486;28;89844;-64
2024/01/20 00:29:51;;;;;;;10.97;6.00;;;;;;;;;;5018796;28;87680;-63
2024/01/20 00:32:21;;;;;;;8.10;4.83;;;;;;;;;;5008130;28;89770;-63
2024/01/20 00:34:49;;;;;;;11.07;6.20;;;;;;;;;;5011055;28;89110;-63
2024/01/20 00:37:33;;;;;;;9.33;5.87;;;;;;;;;;5002768;28;88735;-63
2024/01/20 00:40:02;;;;;;;10.67;6.17;;;;;;;;;;5006297;28;87698;-63
2024/01/20 00:42:31;;;;;;;6.70;4.53;;;;;;;;;;5018813;28;88666;-63
2024/01/20 00:44:59;;;;;;;8.67;5.33;;;;;;;;;;5005799;28;89083;-62
2024/01/20 00:47:29;;;;;;;8.00;5.17;;;;;;;;;;4998683;28;89021;-63
2024/01/20 00:50:00;;;;;;;8.37;5.37;;;;;;;;;;5016526;28;87853;-63
2024/01/20 00:52:29;;;;;;;7.23;4.37;;;;;;;;;;5017722;28;89926;-63
2024/01/20 00:54:57;;;;;;;8.20;4.80;;;;;;;;;;5019119;28;89163;-63
2024/01/20 00:57:26;;;;;;;8.50;4.63;;;;;;;;;;5017785;28;88867;-62
2024/01/20 00:59:54;;;;;;;7.00;4.20;;;;;;;;;;5018985;28;87599;-63
2024/01/20 01:02:23;;;;;;;7.27;3.83;;;;;;;;;;5018202;28;89629;-63
2024/01/20 01:04:54;;;;;;;6.23;4.03;;;;;;;;;;4997755;28;89730;-62
2024/01/20 01:07:26;;;;;;;6.90;4.53;;;;;;;;;;5006758;28;88900;-63
2024/01/20 01:09:54;;;;;;;8.03;4.63;;;;;;;;;;5017763;28;87615;-63
2024/01/20 01:12:23;;;;;;;5.73;4.00;;;;;;;;;;5015559;28;89696;-63
2024/01/20 01:14:51;;;;;;;8.50;4.57;;;;;;;;;;5016890;28;90124;-63
2024/01/20 01:17:20;;;;;;;9.27;4.53;;;;;;;;;;5017258;28;89746;-64
2024/01/20 01:19:48;;;;;;;8.53;4.80;;;;;;;;;;5013637;28;87642;-64
2024/01/20 01:22:22;;;;;;;7.37;4.77;;;;;;;;;;5015274;28;89774;-63
2024/01/20 01:24:51;;;;;;;11.67;5.20;;;;;;;;;;5015658;28;87997;-63
2024/01/20 01:27:19;;;;;;;7.57;4.33;;;;;;;;;;5015265;28;87882;-63
2024/01/20 01:29:48;;;;;;;8.97;5.37;;;;;;;;;;5015256;28;88266;-63
2024/01/20 01:32:15;;;;;;;8.97;5.47;;;;;;;;;;5017230;28;89644;-63
2024/01/20 01:34:45;;;;;;;7.93;4.97;;;;;;;;;;5017229;28;89164;-63
2024/01/20 01:37:13;;;;;;;7.70;4.40;;;;;;;;;;5017278;28;88848;-63
2024/01/20 01:39:43;;;;;;;7.77;5.27;;;;;;;;;;5016189;28;88013;-63
2024/01/20 01:42:13;;;;;;;9.23;4.87;;;;;;;;;;5018370;28;89365;-63
2024/01/20 01:44:41;;;;;;;10.63;6.03;;;;;;;;;;5017324;28;89319;-63
2024/01/20 01:47:09;;;;;;;7.53;6.00;;;;;;;;;;5017331;28;88635;-63
2024/01/20 01:49:39;;;;;;;6.73;4.87;;;;;;;;;;5017196;28;87755;-63
2024/01/20 01:52:12;;;;;;;8.23;4.60;;;;;;;;;;5014233;28;89352;-62
2024/01/20 01:54:40;;;;;;;7.97;4.60;;;;;;;;;;5017048;28;89239;-63
2024/01/20 01:57:10;;;;;;;8.20;4.80;;;;;;;;;;5016817;28;89257;-63
2024/01/20 01:59:39;;;;;;;6.67;4.93;;;;;;;;;;5017271;28;87663;-63
2024/01/20 02:02:09;;;;;;;7.80;5.30;;;;;;;;;;5014469;28;88590;-63
2024/01/20 02:04:37;;;;;;;10.03;4.90;;;;;;;;;;5015639;28;90308;-63
2024/01/20 02:07:05;;;;;;;8.07;3.57;;;;;;;;;;5014217;28;89799;-63
2024/01/20 02:09:34;;;;;;;8.90;4.70;;;;;;;;;;5016697;28;87671;-63
2024/01/20 02:12:02;;;;;;;6.73;4.17;;;;;;;;;;5016835;28;89673;-63
2024/01/20 02:14:33;;;;;;;8.50;4.13;;;;;;;;;;5016178;28;88140;-62
2024/01/20 02:17:02;;;;;;;7.73;4.37;;;;;;;;;;5016724;28;88751;-63
2024/01/20 02:19:31;;;;;;;8.07;4.23;;;;;;;;;;5016836;28;87616;-63
2024/01/20 02:21:59;;;;;;;9.00;4.60;;;;;;;;;;5016497;28;89728;-63
2024/01/20 02:24:29;;;;;;;8.93;4.00;;;;;;;;;;5014093;28;89138;-63
2024/01/20 02:26:59;;;;;;;6.33;3.87;;;;;;;;;;5017109;28;89136;-63
2024/01/20 02:29:27;;;;;;;4.40;2.97;;;;;;;;;;5014160;28;88054;-63
2024/01/20 02:31:56;;;;;;;4.73;2.90;;;;;;;;;;5016061;28;89897;-63
2024/01/20 02:34:27;;;;;;;3.97;3.10;;;;;;;;;;5017234;28;89015;-63
2024/01/20 02:36:55;;;;;;;5.53;3.37;;;;;;;;;;5020057;28;88808;-63
2024/01/20 02:39:23;;;;;;;7.27;3.50;;;;;;;;;;5020370;28;88220;-63
2024/01/20 02:41:53;;;;;;;3.97;2.97;;;;;;;;;;5020089;28;88645;-63
2024/01/20 02:44:21;;;;;;;7.43;3.97;;;;;;;;;;5019765;28;87825;-63
2024/01/20 02:46:52;;;;;;;5.73;4.07;;;;;;;;;;5020380;28;88845;-63
2024/01/20 02:49:21;;;;;;;8.17;3.67;;;;;;;;;;5020132;28;87601;-63
2024/01/20 02:51:49;;;;;;;5.70;3.60;;;;;;;;;;5019873;28;89809;-63
2024/01/20 02:54:17;;;;;;;3.40;2.90;;;;;;;;;;5019482;28;90079;-63
2024/01/20 02:56:46;;;;;;;5.17;2.70;;;;;;;;;;5008700;28;91337;-63
2024/01/20 02:59:15;;;;;;;10.30;3.37;;;;;;;;;;5020130;28;87695;-63
2024/01/20 03:01:44;;;;;;;3.30;2.23;;;;;;;;;;5019849;28;89663;-63
2024/01/20 03:04:13;;;;;;;3.70;2.63;;;;;;;;;;5019730;28;89092;-63
2024/01/20 03:06:42;;;;;;;6.77;3.23;;;;;;;;;;5019373;28;87757;-63
2024/01/20 03:09:14;;;;;;;4.87;3.30;;;;;;;;;;5019958;28;87542;-63
2024/01/20 03:11:43;;;;;;;3.70;2.43;;;;;;;;;;5019858;28;89632;-63
2024/01/20 03:14:12;;;;;;;3.93;2.73;;;;;;;;;;5019919;28;88853;-63
2024/01/20 03:16:41;;;;;;;6.13;3.03;;;;;;;;;;5018991;28;88765;-63
2024/01/20 03:19:10;;;;;;;4.67;2.93;;;;;;;;;;5016993;28;87934;-63
2024/01/20 03:21:38;;;;;;;5.20;3.47;;;;;;;;;;5018843;28;90066;-63
2024/01/20 03:24:07;;;;;;;2.87;1.90;;;;;;;;;;5015489;28;87995;-63
2024/01/20 03:26:35;;;;;;;4.93;2.67;;;;;;;;;;5018251;28;88894;-63
2024/01/20 03:29:04;;;;;;;3.87;2.73;;;;;;;;;;5019468;28;87706;-63
2024/01/20 03:31:35;;;;;;;4.33;2.33;;;;;;;;;;5018580;28;89541;-63
2024/01/20 03:34:06;;;;;;;6.23;3.53;;;;;;;;;;5018406;28;87574;-63
2024/01/20 03:36:37;;;;;;;3.03;2.80;;;;;;;;;;5018434;28;89313;-63
2024/01/20 03:39:05;;;;;;;3.07;2.03;;;;;;;;;;5018707;28;87582;-63
2024/01/20 03:41:33;;;;;;;4.10;1.93;;;;;;;;;;5017916;28;89564;-63
2024/01/20 03:44:02;;;;;;;9.20;3.30;;;;;;;;;;5015545;28;89864;-63
2024/01/20 03:46:32;;;;;;;5.90;2.23;;;;;;;;;;5018521;28;89747;-63
2024/01/20 03:49:00;;;;;;;5.03;2.33;;;;;;;;;;5017531;28;88229;-63
2024/01/20 03:51:33;;;;;;;2.57;1.73;;;;;;;;;;5018067;28;89785;-63
2024/01/20 03:54:02;;;;;;;3.03;2.27;;;;;;;;;;5015935;28;89281;-62
2024/01/20 03:56:31;;;;;;;1.97;1.83;;;;;;;;;;5018899;28;88796;-63
2024/01/20 03:58:59;;;;;;;3.40;2.13;;;;;;;;;;5022351;28;87250;-63
2024/01/20 04:01:28;;;;;;;3.70;2.10;;;;;;;;;;5018927;28;89643;-63
2024/01/20 04:03:56;;;;;;;7.70;2.27;;;;;;;;;;5019631;28;89067;-63
2024/01/20 04:06:25;;;;;;;4.93;2.30;;;;;;;;;;5021864;28;88798;-63
2024/01/20 04:08:55;;;;;;;6.83;2.17;;;;;;;;;;5021470;28;87855;-63
2024/01/20 04:11:23;;;;;;;4.63;2.13;;;;;;;;;;5021670;28;89680;-63
2024/01/20 04:13:51;;;;;;;2.90;1.87;;;;;;;;;;5021407;28;89248;-62
2024/01/20 04:16:22;;;;;;;3.00;2.23;;;;;;;;;;5021428;28;88817;-63
2024/01/20 04:18:51;;;;;;;3.20;2.03;;;;;;;;;;5021573;28;87626;-62
2024/01/20 04:21:19;;;;;;;3.97;2.00;;;;;;;;;;5020919;28;89800;-62
2024/01/20 04:23:48;;;;;;;4.77;2.53;;;;;;;;;;5014189;28;89156;-63
2024/01/20 04:26:17;;;;;;;4.60;2.13;;;;;;;;;;5013328;28;90337;-62
2024/01/20 04:28:46;;;;;;;4.63;2.73;;;;;;;;;;5021164;28;87637;-62
2024/01/20 04:31:16;;;;;;;4.63;2.47;;;;;;;;;;5018447;28;88210;-62
2024/01/20 04:33:45;;;;;;;4.97;2.30;;;;;;;;;;5017526;28;89723;-62
2024/01/20 04:36:13;;;;;;;3.87;2.33;;;;;;;;;;5021309;28;89714;-63
2024/01/20 04:38:42;;;;;;;2.87;2.33;;;;;;;;;;5017030;28;87859;-62
2024/01/20 04:41:10;;;;;;;5.10;2.80;;;;;;;;;;5017848;28;89626;-62
2024/01/20 04:43:39;;;;;;;6.17;2.63;;;;;;;;;;5012898;28;89151;-63
2024/01/20 04:46:08;;;;;;;4.57;2.77;;;;;;;;;;5014449;28;91602;-62
2024/01/20 04:48:36;;;;;;;4.57;3.10;;;;;;;;;;5018700;28;87733;-62
2024/01/20 04:51:05;;;;;;;5.00;3.07;;;;;;;;;;5017537;28;89675;-62
2024/01/20 04:53:34;;;;;;;3.73;2.33;;;;;;;;;;5020687;28;88961;-62
2024/01/20 04:56:04;;;;;;;3.83;2.30;;;;;;;;;;5020335;28;88905;-62
2024/01/20 04:58:32;;;;;;;4.47;3.07;;;;;;;;;;5020289;28;87755;-62
2024/01/20 05:01:03;;;;;;;3.60;2.27;;;;;;;;;;5020513;28;89741;-62
2024/01/20 05:03:31;;;;;;;5.67;2.63;;;;;;;;;;5020314;28;89101;-62
2024/01/20 05:06:00;;;;;;;3.93;2.60;;;;;;;;;;5020605;28;88851;-62
2024/01/20 05:08:28;;;;;;;2.97;2.13;;;;;;;;;;5021236;28;87636;-62
2024/01/20 05:10:57;;;;;;;3.87;3.00;;;;;;;;;;5017998;28;89752;-62
2024/01/20 05:13:25;;;;;;;4.53;2.40;;;;;;;;;;5020455;28;89051;-62
2024/01/20 05:15:54;;;;;;;4.10;2.53;;;;;;;;;;5017115;28;88809;-62
2024/01/20 05:18:23;;;;;;;4.40;2.73;;;;;;;;;;5019071;28;87729;-62
2024/01/20 05:20:52;;;;;;;3.40;2.63;;;;;;;;;;5017135;28;89704;-62
2024/01/20 05:23:20;;;;;;;3.47;2.23;;;;;;;;;;5014014;28;90106;-63
2024/01/20 05:25:49;;;;;;;3.03;2.17;;;;;;;;;;5017852;28;89417;-62
2024/01/20 05:28:17;;;;;;;3.77;2.40;;;;;;;;;;5017316;28;87493;-62
2024/01/20 05:30:45;;;;;;;4.37;2.87;;;;;;;;;;5018367;28;89627;-63
2024/01/20 05:33:14;;;;;;;6.37;2.40;;;;;;;;;;5017472;28;89270;-62
2024/01/20 05:35:44;;;;;;;5.67;2.60;;;;;;;;;;5016886;28;89117;-62
2024/01/20 05:38:12;;;;;;;3.10;2.27;;;;;;;;;;5017534;28;87563;-62
2024/01/20 05:40:40;;;;;;;3.03;2.40;;;;;;;;;;5014879;28;89678;-62
2024/01/20 05:43:08;;;;;;;2.83;2.50;;;;;;;;;;5019040;28;89100;-62
2024/01/20 05:45:37;;;;;;;4.43;2.33;;;;;;;;;;5013843;28;88824;-62
2024/01/20 05:48:05;;;;;;;4.60;2.30;;;;;;;;;;5020119;28;87842;-62
2024/01/20 05:50:34;;;;;;;3.43;2.50;;;;;;;;;;5019759;28;89525;-62
2024/01/20 05:53:04;;;;;;;3.73;2.30;;;;;;;;;;5019734;28;89092;-62
2024/01/20 05:55:34;;;;;;;3.47;2.03;;;;;;;;;;5013337;28;88951;-61
2024/01/20 05:58:02;;;;;;;2.93;2.40;;;;;;;;;;5020228;28;87663;-62
2024/01/20 06:00:31;;;;;;;4.00;2.47;;;;;;;;;;5012614;28;89690;-62
2024/01/20 06:02:59;;;;;;;4.60;2.60;;;;;;;;;;5017115;28;89299;-62
2024/01/20 06:05:28;;;;;;;3.30;2.23;;;;;;;;;;5019849;28;88821;-62
2024/01/20 06:07:56;;;;;;;4.03;2.43;;;;;;;;;;5017191;28;87674;-62
2024/01/20 06:10:26;;;;;;;4.43;2.30;;;;;;;;;;5013331;28;89544;-62
2024/01/20 06:12:54;;;;;;;2.93;2.33;;;;;;;;;;5019494;28;90965;-62
2024/01/20 06:15:23;;;;;;;4.83;1.93;;;;;;;;;;5020049;28;89812;-62
2024/01/20 06:17:51;;;;;;;3.07;2.00;;;;;;;;;;5020468;28;87518;-62
2024/01/20 06:20:20;;;;;;;4.60;2.30;;;;;;;;;;5019824;28;88317;-62
2024/01/20 06:22:48;;;;;;;3.10;2.00;;;;;;;;;;5019971;28;88912;-62
2024/01/20 06:25:16;;;;;;;5.43;2.13;;;;;;;;;;5019890;28;88816;-62
2024/01/20 06:27:46;;;;;;;2.97;1.60;;;;;;;;;;5019945;28;87599;-63
2024/01/20 06:30:14;;;;;;;2.53;1.97;;;;;;;;;;5019946;28;89635;-62
2024/01/20 06:32:43;;;;;;;2.50;1.70;;;;;;;;;;5016895;28;89108;-62
2024/01/20 06:35:11;;;;;;;2.73;1.70;;;;;;;;;;5020189;28;88770;-62
2024/01/20 06:37:40;;;;;;;3.80;1.70;;;;;;;;;;5019759;28;87989;-62
2024/01/20 06:40:09;;;;;;;2.67;1.83;;;;;;;;;;5019378;28;87743;-62
2024/01/20 06:42:37;;;;;;;3.10;1.97;;;;;;;;;;5019326;28;89053;-62
2024/01/20 06:45:08;;;;;;;3.33;2.23;;;;;;;;;;5019908;28;87773;-61
2024/01/20 06:47:36;;;;;;;3.60;2.00;;;;;;;;;;5019679;28;88785;-62
2024/01/20 06:50:05;;;;;;;3.73;2.37;;;;;;;;;;5019606;28;89772;-62
2024/01/20 06:52:33;;;;;;;2.43;1.77;;;;;;;;;;5019169;28;89077;-62
2024/01/20 06:55:02;;;;;;;2.87;1.87;;;;;;;;;;5018579;28;87743;-62
2024/01/20 06:57:30;;;;;;;2.00;1.80;;;;;;;;;;5016686;28;87642;-62
2024/01/20 06:59:58;;;;;;;3.17;1.80;;;;;;;;;;5018864;28;89709;-62
2024/01/20 07:02:30;;;;;;;4.33;2.50;;;;;;;;;;5015216;28;90008;-62
2024/01/20 07:04:58;;;;;;;3.73;2.50;;;;;;;;;;5019004;28;89081;-62
2024/01/20 07:07:28;;;;;;;2.87;2.50;;;;;;;;;;5018390;28;87402;-62
2024/01/20 07:09:57;;;;;;;3.63;2.53;;;;;;;;;;5018758;28;89675;-62
2024/01/20 07:12:25;;;;;;;5.73;2.03;;;;;;;;;;5010163;28;87788;-62
2024/01/20 07:14:55;;;;;;;4.87;3.40;;;;;;;;;;5016181;28;88789;-62
2024/01/20 07:17:24;;;;;;;3.83;2.73;;;;;;;;;;5013553;28;87700;-63
2024/01/20 07:19:53;;;;;;;6.33;4.00;;;;;;;;;;5013805;28;89689;-62
2024/01/20 07:22:22;;;;;;;3.70;2.77;;;;;;;;;;5021861;28;89132;-62
2024/01/20 07:24:50;;;;;;;4.33;3.07;;;;;;;;;;5016042;28;88808;-62
2024/01/20 07:27:18;;;;;;;3.43;2.43;;;;;;;;;;5022244;28;87857;-63
2024/01/20 07:29:47;;;;;;;4.03;3.30;;;;;;;;;;5021487;28;88572;-62
2024/01/20 07:32:15;;;;;;;6.90;3.50;;;;;;;;;;5020867;28;89236;-62
2024/01/20 07:34:43;;;;;;;3.23;2.90;;;;;;;;;;5016645;28;87797;-63
2024/01/20 07:37:13;;;;;;;4.37;3.40;;;;;;;;;;5019543;28;87565;-63
2024/01/20 07:39:46;;;;;;;5.17;4.13;;;;;;;;;;5015610;28;89746;-62
2024/01/20 07:42:15;;;;;;;7.97;3.47;;;;;;;;;;5015891;28;89101;-62
2024/01/20 07:44:43;;;;;;;6.10;3.03;;;;;;;;;;5016994;28;88795;-62
2024/01/20 07:47:13;;;;;;;6.47;3.80;;;;;;;;;;5022471;28;87594;-62
2024/01/20 07:49:41;;;;;;;4.80;3.07;;;;;;;;;;5021874;28;89616;-62
2024/01/20 07:52:10;;;;;;;4.53;3.23;;;;;;;;;;5018264;28;90140;-62
2024/01/20 07:54:40;;;;;;;5.07;4.13;;;;;;;;;;5020287;28;89566;-62
2024/01/20 07:57:09;;;;;;;5.73;4.27;;;;;;;;;;5020728;28;87667;-62
2024/01/20 07:59:38;;;;;;;10.77;4.47;;;;;;;;;;5020699;28;89611;-62
2024/01/20 08:02:06;;;;;;;5.20;4.07;;;;;;;;;;5020016;28;89206;-62
2024/01/20 08:04:34;;;;;;;4.83;3.70;;;;;;;;;;5017125;28;88710;-62
2024/01/20 08:07:03;;;;;;;7.83;4.47;;;;;;;;;;5020360;28;89248;-62
2024/01/20 08:09:32;;;;;;;8.17;4.20;;;;;;;;;;5020451;28;89822;-62
2024/01/20 08:12:02;;;;;;;7.33;4.03;;;;;;;;;;5017353;28;88123;-62
2024/01/20 08:14:30;;;;;;;11.37;4.03;;;;;;;;;;5018004;28;88931;-62
2024/01/20 08:16:58;;;;;;;7.27;3.63;;;;;;;;;;5020653;28;87808;-62
2024/01/20 08:19:27;;;;;;;5.87;4.07;;;;;;;;;;5018059;28;89709;-62
2024/01/20 08:21:55;;;;;;;7.73;4.30;;;;;;;;;;5014487;28;89395;-64
2024/01/20 08:24:23;;;;;;;7.20;4.10;;;;;;;;;;5019749;28;88801;-64
2024/01/20 08:26:52;;;;;;;7.40;3.70;;;;;;;;;;5019495;28;87681;-63
2024/01/20 08:29:23;;;;;;;7.77;4.93;;;;;;;;;;5018835;28;89601;-63
2024/01/20 08:31:51;;;;;;;8.47;4.60;;;;;;;;;;5016947;28;87999;-65
2024/01/20 08:34:19;;;;;;;6.87;4.10;;;;;;;;;;5019266;28;88910;-65
2024/01/20 08:36:48;;;;;;;6.63;3.70;;;;;;;;;;5020049;28;87421;-64
2024/01/20 08:39:19;;;;;;;6.37;4.17;;;;;;;;;;5019184;28;88525;-64
2024/01/20 08:41:48;;;;;;;6.93;4.57;;;;;;;;;;5016186;28;89806;-64
2024/01/20 08:44:16;;;;;;;6.23;4.40;;;;;;;;;;5019073;28;88615;-64
2024/01/20 08:46:47;;;;;;;7.20;4.17;;;;;;;;;;5018999;28;87446;-64
2024/01/20 08:49:16;;;;;;;8.57;5.37;;;;;;;;;;5017743;28;89793;-65
2024/01/20 08:51:44;;;;;;;8.93;4.57;;;;;;;;;;5015949;28;89254;-65
2024/01/20 08:54:12;;;;;;;9.83;5.90;;;;;;;;;;5016193;28;88965;-64
2024/01/20 08:56:41;;;;;;;7.43;5.03;;;;;;;;;;5015364;28;87704;-64
2024/01/20 08:59:10;;;;;;;6.07;4.83;;;;;;;;;;5010812;28;89252;-64
2024/01/20 09:01:39;;;;;;;7.20;3.87;;;;;;;;;;5016920;28;89068;-65
2024/01/20 09:04:08;;;;;;;12.00;5.73;;;;;;;;;;5017335;28;87891;-64
2024/01/20 09:06:38;;;;;;;7.60;4.83;;;;;;;;;;5018133;28;88021;-64
2024/01/20 09:09:06;;;;;;;9.10;4.87;;;;;;;;;;5016367;28;92110;-64
2024/01/20 09:11:35;;;;;;;8.20;4.83;;;;;;;;;;5017609;28;89093;-64
2024/01/20 09:14:04;;;;;;;12.20;5.73;;;;;;;;;;5016076;28;88798;-64
2024/01/20 09:16:33;;;;;;;7.57;5.67;;;;;;;;;;5014588;28;88493;-64
2024/01/20 09:19:01;;;;;;;11.67;6.30;;;;;;;;;;5017093;28;89728;-64
2024/01/20 09:21:31;;;;;;;10.83;6.43;;;;;;;;;;5018548;28;89064;-64
2024/01/20 09:24:00;;;;;;;9.47;5.60;;;;;;;;;;5017668;28;89030;-64
2024/01/20 09:26:30;;;;;;;11.73;6.13;;;;;;;;;;5010494;28;88693;-64
2024/01/20 09:28:58;;;;;;;7.37;4.67;;;;;;;;;;5014805;28;89619;-65
2024/01/20 09:31:26;;;;;;;7.27;5.10;;;;;;;;;;5015661;28;90061;-64
2024/01/20 09:33:55;;;;;;;6.90;4.37;;;;;;;;;;5016302;28;89733;-64
2024/01/20 09:36:24;;;;;;;8.80;5.60;;;;;;;;;;5018317;28;88209;-64
2024/01/20 09:38:54;;;;;;;6.73;4.50;;;;;;;;;;5016965;28;89599;-64
2024/01/20 09:41:22;;;;;;;7.60;4.37;;;;;;;;;;5017965;28;89178;-64
2024/01/20 09:43:50;;;;;;;7.87;5.83;;;;;;;;;;5016751;28;88902;-64
2024/01/20 09:46:19;;;;;;;8.43;4.97;;;;;;;;;;5019002;28;87570;-64
2024/01/20 09:48:50;;;;;;;8.13;5.57;;;;;;;;;;5019640;28;89652;-64
2024/01/20 09:51:24;;;;;;;6.67;4.77;;;;;;;;;;5018669;28;89152;-64
2024/01/20 09:53:58;;;;;;;9.33;5.40;;;;;;;;;;5008590;28;89087;-64
2024/01/20 09:56:26;;;;;;;9.80;5.60;;;;;;;;;;5015682;28;88036;-63
2024/01/20 09:58:56;;;;;;;12.07;6.97;;;;;;;;;;5016066;28;89716;-64
2024/01/20 10:01:24;;;;;;;10.90;6.23;;;;;;;;;;5016954;28;89127;-62
2024/01/20 10:03:52;;;;;;;14.30;7.17;;;;;;;;;;5016038;28;88897;-63
2024/01/20 10:06:24;;;;;;;11.70;7.47;;;;;;;;;;5016971;28;87644;-62
2024/01/20 10:08:54;;;;;;;11.23;6.07;;;;;;;;;;5015727;28;89903;-63
2024/01/20 10:11:24;;;;;;;11.53;7.30;;;;;;;;;;5016690;28;89288;-62
2024/01/20 10:13:52;;;;;;;10.37;7.60;;;;;;;;;;5017392;28;88792;-62
2024/01/20 10:16:20;;;;;;;10.80;7.20;;;;;;;;;;5016148;28;87739;-63
2024/01/20 10:18:50;;;;;;;12.70;8.30;;;;;;;;;;5015926;28;89679;-63
2024/01/20 10:21:19;;;;;;;12.73;7.00;;;;;;;;;;5016542;28;89914;-64
2024/01/20 10:23:47;;;;;;;14.07;7.17;;;;;;;;;;5016917;28;89813;-64
2024/01/20 10:26:17;;;;;;;15.47;6.83;;;;;;;;;;5014681;28;89387;-63
2024/01/20 10:28:45;;;;;;;12.00;7.97;;;;;;;;;;5016256;28;89693;-64
2024/01/20 10:31:14;;;;;;;10.57;7.47;;;;;;;;;;5015644;28;89126;-65
2024/01/20 10:33:42;;;;;;;10.87;7.23;;;;;;;;;;5015859;28;88682;-65
2024/01/20 10:36:11;;;;;;;12.17;7.43;;;;;;;;;;5016430;28;87682;-63
2024/01/20 10:38:39;;;;;;;12.57;7.87;;;;;;;;;;5017086;28;89707;-63
2024/01/20 10:41:09;;;;;;;19.43;7.97;;;;;;;;;;5011698;28;89694;-64
2024/01/20 10:43:39;;;;;;;10.47;6.63;;;;;;;;;;5015450;28;89749;-65
2024/01/20 10:46:10;;;;;;;17.83;7.37;;;;;;;;;;5016447;28;88063;-65
2024/01/20 10:48:38;;;;;;;15.40;7.30;;;;;;;;;;5016599;28;89695;-66
2024/01/20 10:51:09;;;;;;;14.07;6.33;;;;;;;;;;5015637;28;89127;-65
2024/01/20 10:53:37;;;;;;;11.10;6.07;;;;;;;;;;5016264;28;88965;-66
2024/01/20 10:56:06;;;;;;;15.93;7.30;;;;;;;;;;5017869;28;87828;-66
2024/01/20 10:58:36;;;;;;;15.10;6.67;;;;;;;;;;5019946;28;89310;-65
2024/01/20 11:01:06;;;;;;;14.43;6.47;;;;;;;;;;5019670;28;88994;-65
2024/01/20 11:03:35;;;;;;;11.57;5.67;;;;;;;;;;5020283;28;88958;-67
2024/01/20 11:06:03;;;;;;;9.97;5.43;;;;;;;;;;5020267;28;88180;-67
2024/01/20 11:08:32;;;;;;;9.70;4.80;;;;;;;;;;5018972;28;89632;-66
2024/01/20 11:11:01;;;;;;;7.43;4.37;;;;;;;;;;5015188;28;90156;-67
2024/01/20 11:13:29;;;;;;;8.23;5.10;;;;;;;;;;5017426;28;91017;-65
2024/01/20 11:15:58;;;;;;;10.67;4.97;;;;;;;;;;5018828;28;87526;-65
2024/01/20 11:18:28;;;;;;;12.33;6.07;;;;;;;;;;5016693;28;89442;-65
2024/01/20 11:20:59;;;;;;;11.30;5.30;;;;;;;;;;5017981;28;88141;-65
2024/01/20 11:23:28;;;;;;;10.73;4.77;;;;;;;;;;5019167;28;89536;-64
2024/01/20 11:25:56;;;;;;;8.80;5.27;;;;;;;;;;5018717;28;87720;-65
2024/01/20 11:28:25;;;;;;;7.80;5.20;;;;;;;;;;5019375;28;89465;-65
2024/01/20 11:30:54;;;;;;;8.70;5.23;;;;;;;;;;5018483;28;89042;-65
2024/01/20 11:33:22;;;;;;;8.13;4.93;;;;;;;;;;5014064;28;88933;-64
2024/01/20 11:35:53;;;;;;;9.63;5.50;;;;;;;;;;5017994;28;87970;-65
2024/01/20 11:38:21;;;;;;;8.23;4.07;;;;;;;;;;5016641;28;89687;-64
2024/01/20 11:40:59;;;;;;;7.53;4.60;;;;;;;;;;5017734;28;89146;-64
2024/01/20 11:43:28;;;;;;;7.60;5.77;;;;;;;;;;5016878;28;88065;-64
2024/01/20 11:45:56;;;;;;;9.37;5.50;;;;;;;;;;5017856;28;88007;-64
2024/01/20 11:48:25;;;;;;;11.10;6.43;;;;;;;;;;5019292;28;89593;-64
2024/01/20 11:50:55;;;;;;;13.93;6.27;;;;;;;;;;5017619;28;88737;-65
2024/01/20 11:53:24;;;;;;;11.07;6.53;;;;;;;;;;5018373;28;91661;-64
2024/01/20 11:55:58;;;;;;;8.27;6.07;;;;;;;;;;5015132;28;88399;-64
2024/01/20 11:58:26;;;;;;;10.87;5.87;;;;;;;;;;5014937;28;88644;-64
2024/01/20 12:00:55;;;;;;;7.70;5.60;;;;;;;;;;5010251;28;90214;-64
2024/01/20 12:03:24;;;;;;;9.67;5.93;;;;;;;;;;5015093;28;89761;-64
2024/01/20 12:05:52;;;;;;;7.97;6.10;;;;;;;;;;5021985;28;89759;-64
2024/01/20 12:08:22;;;;;;;7.10;5.27;;;;;;;;;;5014481;28;89992;-64
2024/01/20 12:10:51;;;;;;;8.87;5.23;;;;;;;;;;5018457;28;89213;-64
2024/01/20 12:13:20;;;;;;;7.63;5.03;;;;;;;;;;5017956;28;88789;-64
2024/01/20 12:15:49;;;;;;;7.63;5.07;;;;;;;;;;5013722;28;87608;-63
2024/01/20 12:18:18;;;;;;;11.63;6.73;;;;;;;;;;5015634;28;89602;-64
2024/01/20 12:20:46;;;;;;;11.97;7.50;;;;;;;;;;5018340;28;89109;-64
2024/01/20 12:23:18;;;;;;;12.60;7.97;;;;;;;;;;5018371;28;88834;-65
2024/01/20 12:25:49;;;;;;;12.10;6.80;;;;;;;;;;5015569;28;88090;-64
2024/01/20 12:28:17;;;;;;;13.30;7.40;;;;;;;;;;5015872;28;89615;-64
2024/01/20 12:30:46;;;;;;;11.87;8.20;;;;;;;;;;5018606;28;89210;-64
2024/01/20 12:33:14;;;;;;;12.30;7.93;;;;;;;;;;5018295;28;88964;-64
2024/01/20 12:35:43;;;;;;;13.10;7.23;;;;;;;;;;5017886;28;87497;-64
2024/01/20 12:38:11;;;;;;;12.30;6.03;;;;;;;;;;5017186;28;89813;-64
2024/01/20 12:40:40;;;;;;;9.80;6.77;;;;;;;;;;5016540;28;89260;-64
2024/01/20 12:43:10;;;;;;;9.10;5.97;;;;;;;;;;5016932;28;88854;-64
2024/01/20 12:45:39;;;;;;;11.67;6.27;;;;;;;;;;5015847;28;87970;-64
2024/01/20 12:48:08;;;;;;;11.60;6.07;;;;;;;;;;5016463;28;89703;-64
2024/01/20 12:50:36;;;;;;;12.40;6.60;;;;;;;;;;5017159;28;90189;-64
2024/01/20 12:53:05;;;;;;;8.67;6.07;;;;;;;;;;5017238;28;89872;-65
2024/01/20 12:55:33;;;;;;;10.57;6.33;;;;;;;;;;5017414;28;87668;-64
2024/01/20 12:58:02;;;;;;;12.30;7.37;;;;;;;;;;5017413;28;89480;-65
2024/01/20 13:00:31;;;;;;;10.33;6.40;;;;;;;;;;5016748;28;89077;-65
2024/01/20 13:03:00;;;;;;;12.47;6.67;;;;;;;;;;5014663;28;89377;-64
2024/01/20 13:05:28;;;;;;;11.80;6.50;;;;;;;;;;5017358;28;87736;-64
2024/01/20 13:07:57;;;;;;;11.70;6.07;;;;;;;;;;5015912;28;89650;-64
2024/01/20 13:10:25;;;;;;;10.00;6.63;;;;;;;;;;5015304;28;89287;-65
2024/01/20 13:12:53;;;;;;;11.23;6.20;;;;;;;;;;5017203;28;88842;-64
2024/01/20 13:15:23;;;;;;;12.80;6.47;;;;;;;;;;5016942;28;87947;-64
2024/01/20 13:17:53;;;;;;;7.97;5.90;;;;;;;;;;5016775;28;89643;-64
2024/01/20 13:20:22;;;;;;;9.63;6.17;;;;;;;;;;5015544;28;89155;-65
2024/01/20 13:22:50;;;;;;;8.93;5.53;;;;;;;;;;5016417;28;90998;-65
2024/01/20 13:25:19;;;;;;;9.97;7.20;;;;;;;;;;5015762;28;88369;-65
2024/01/20 13:27:47;;;;;;;6.57;5.20;;;;;;;;;;5017138;28;89632;-65
2024/01/20 13:30:15;;;;;;;13.23;5.67;;;;;;;;;;5014505;28;88984;-64
2024/01/20 13:32:44;;;;;;;9.77;6.57;;;;;;;;;;5017595;28;88840;-65
2024/01/20 13:35:14;;;;;;;8.23;5.90;;;;;;;;;;5017374;28;87671;-66
2024/01/20 13:37:42;;;;;;;9.77;4.93;;;;;;;;;;5012333;28;90104;-66
2024/01/20 13:40:11;;;;;;;10.37;6.23;;;;;;;;;;5016625;28;90025;-65
2024/01/20 13:42:39;;;;;;;8.67;5.23;;;;;;;;;;5013331;28;89847;-65
2024/01/20 13:45:11;;;;;;;7.87;5.37;;;;;;;;;;5017686;28;87512;-66
2024/01/20 13:47:40;;;;;;;10.90;6.67;;;;;;;;;;5011720;28;89709;-66
2024/01/20 13:50:09;;;;;;;11.50;6.23;;;;;;;;;;5017113;28;89186;-66
2024/01/20 13:52:39;;;;;;;12.27;6.07;;;;;;;;;;5013289;28;88986;-66
2024/01/20 13:55:08;;;;;;;11.83;6.03;;;;;;;;;;5016967;28;87639;-66
2024/01/20 13:57:36;;;;;;;7.33;4.47;;;;;;;;;;5023976;28;89689;-65
2024/01/20 14:00:05;;;;;;;10.43;4.73;;;;;;;;;;5025633;28;88096;-65
2024/01/20 14:02:34;;;;;;;5.90;4.53;;;;;;;;;;5016892;28;88791;-65
2024/01/20 14:05:03;;;;;;;10.50;5.60;;;;;;;;;;5015266;28;88156;-66
2024/01/20 14:07:31;;;;;;;7.20;4.33;;;;;;;;;;5016310;28;90016;-66
2024/01/20 14:10:01;;;;;;;5.27;4.17;;;;;;;;;;5017200;28;89076;-66
2024/01/20 14:12:29;;;;;;;8.73;4.53;;;;;;;;;;5017630;28;88793;-66
2024/01/20 14:14:58;;;;;;;6.03;4.13;;;;;;;;;;4998328;28;87574;-67
2024/01/20 14:17:27;;;;;;;9.33;4.97;;;;;;;;;;4997489;28;89246;-66
2024/01/20 14:19:56;;;;;;;7.13;4.90;;;;;;;;;;4997759;28;89513;-67
2024/01/20 14:22:24;;;;;;;10.00;6.47;;;;;;;;;;5012723;28;89463;-67
2024/01/20 14:24:52;;;;;;;7.27;5.27;;;;;;;;;;5016692;28;87476;-67
2024/01/20 14:27:22;;;;;;;9.03;6.07;;;;;;;;;;5005928;28;89622;-67
2024/01/20 14:29:52;;;;;;;7.63;5.40;;;;;;;;;;5004132;28;91506;-67
2024/01/20 14:32:21;;;;;;;11.93;5.70;;;;;;;;;;5017137;28;89783;-67
2024/01/20 14:34:51;;;;;;;8.97;6.33;;;;;;;;;;5017091;28;87622;-67
2024/01/20 14:37:20;;;;;;;8.50;5.83;;;;;;;;;;5013050;28;89953;-66
2024/01/20 14:39:49;;;;;;;8.70;5.77;;;;;;;;;;5028038;28;89436;-66
2024/01/20 14:42:17;;;;;;;11.53;5.60;;;;;;;;;;5036348;28;88749;-66
2024/01/20 14:44:47;;;;;;;8.80;4.80;;;;;;;;;;5017754;28;87575;-66
2024/01/20 14:47:15;;;;;;;8.47;5.23;;;;;;;;;;5016508;28;90274;-66
2024/01/20 14:49:43;;;;;;;11.70;5.30;;;;;;;;;;5016391;28;88978;-66
2024/01/20 14:52:12;;;;;;;6.97;5.37;;;;;;;;;;5016524;28;87733;-66